createdAt,value
2022-10-18T00:01:32.990Z,4.45
2022-10-18T00:04:00.440Z,4.35
2022-10-18T00:06:27.931Z,4.80
2022-10-18T00:08:55.424Z,5.95
2022-10-18T00:11:22.877Z,5.90
2022-10-18T00:13:51.633Z,4.65
2022-10-18T00:16:19.287Z,4.32
2022-10-18T00:18:47.895Z,4.88
2022-10-18T00:21:16.509Z,4.80
2022-10-18T00:23:44.051Z,4.45
2022-10-18T00:26:12.689Z,5.18
2022-10-18T00:28:40.364Z,4.78
2022-10-18T00:31:16.798Z,4.43
2022-10-18T00:33:44.881Z,4.85
2022-10-18T00:36:12.550Z,4.95
2022-10-18T00:38:40.036Z,4.65
2022-10-18T00:41:09.921Z,4.60
2022-10-18T00:43:52.551Z,4.72
2022-10-18T00:46:21.369Z,4.85
2022-10-18T00:48:48.839Z,4.90
2022-10-18T00:51:16.291Z,5.20
2022-10-18T00:53:43.816Z,5.70
2022-10-18T00:56:11.245Z,4.95
2022-10-18T00:58:38.678Z,5.25
2022-10-18T01:01:06.437Z,4.65
2022-10-18T01:03:35.368Z,5.28
2022-10-18T01:06:02.789Z,5.75
2022-10-18T01:08:37.282Z,5.30
2022-10-18T01:11:11.074Z,5.70
2022-10-18T01:13:44.560Z,5.43
2022-10-18T01:16:16.389Z,5.93
2022-10-18T01:18:49.199Z,5.70
2022-10-18T01:21:21.073Z,5.18
2022-10-18T01:24:42.171Z,5.38
2022-10-18T01:27:22.237Z,5.50
2022-10-18T01:32:22.511Z,6.20
2022-10-18T01:34:50.017Z,6.28
2022-10-18T01:37:17.948Z,5.50
2022-10-18T01:39:46.859Z,5.65
2022-10-18T01:42:15.629Z,5.97
2022-10-18T01:44:43.115Z,5.65
2022-10-18T01:47:10.890Z,5.78
2022-10-18T01:49:39.658Z,6.35
2022-10-18T01:54:41.005Z,5.95
2022-10-18T01:57:10.549Z,6.80
2022-10-18T01:59:42.156Z,6.78
2022-10-18T02:02:14.272Z,6.53
2022-10-18T02:04:46.592Z,6.18
2022-10-18T02:07:17.676Z,5.97
2022-10-18T02:09:50.232Z,6.30
2022-10-18T02:12:17.694Z,6.03
2022-10-18T02:14:45.154Z,6.20
2022-10-18T02:17:12.918Z,6.25
2022-10-18T02:19:42.799Z,6.32
2022-10-18T02:22:11.167Z,6.65
2022-10-18T02:24:39.646Z,6.38
2022-10-18T02:27:07.063Z,6.10
2022-10-18T02:29:34.524Z,6.13
2022-10-18T02:32:05.268Z,6.20
2022-10-18T02:34:34.934Z,6.50
2022-10-18T02:37:03.686Z,6.68
2022-10-18T02:39:32.218Z,5.93
2022-10-18T02:41:59.782Z,7.03
2022-10-18T02:44:27.443Z,6.40
2022-10-18T02:46:54.878Z,6.78
2022-10-18T02:49:22.740Z,6.47
2022-10-18T02:51:50.173Z,6.72
2022-10-18T02:54:18.956Z,6.68
2022-10-18T02:56:46.406Z,6.63
2022-10-18T02:59:13.894Z,7.13
2022-10-18T03:01:41.357Z,6.43
2022-10-18T03:04:08.853Z,7.07
2022-10-18T03:06:36.300Z,6.80
2022-10-18T03:09:03.823Z,7.00
2022-10-18T03:11:32.592Z,6.30
2022-10-18T03:14:00.146Z,6.38
2022-10-18T03:16:27.571Z,6.72
2022-10-18T03:18:55.023Z,6.57
2022-10-18T03:21:22.472Z,6.22
2022-10-18T03:23:49.928Z,6.60
2022-10-18T03:26:17.359Z,6.13
2022-10-18T03:28:46.214Z,6.70
2022-10-18T03:31:13.692Z,6.55
2022-10-18T03:33:41.142Z,6.90
2022-10-18T03:36:08.679Z,6.50
2022-10-18T03:38:36.183Z,6.97
2022-10-18T03:41:03.635Z,6.65
2022-10-18T03:43:31.077Z,6.82
2022-10-18T03:45:59.835Z,6.65
2022-10-18T03:48:27.276Z,7.43
2022-10-18T03:50:54.717Z,6.72
2022-10-18T03:53:22.145Z,7.32
2022-10-18T03:55:51.900Z,7.45
2022-10-18T03:58:19.517Z,7.10
2022-10-18T04:00:46.976Z,6.63
2022-10-18T04:03:15.774Z,6.78
2022-10-18T04:05:43.325Z,6.78
2022-10-18T04:08:10.762Z,7.07
2022-10-18T04:10:38.273Z,6.35
2022-10-18T04:13:05.771Z,6.13
2022-10-18T04:15:33.208Z,6.45
2022-10-18T04:18:00.773Z,6.55
2022-10-18T04:20:29.694Z,6.70
2022-10-18T04:22:57.776Z,6.32
2022-10-18T04:25:25.357Z,6.28
2022-10-18T04:27:52.785Z,6.55
2022-10-18T04:30:20.251Z,7.18
2022-10-18T04:32:47.693Z,6.57
2022-10-18T04:35:15.172Z,6.45
2022-10-18T04:37:43.947Z,6.28
2022-10-18T04:40:12.466Z,6.80
2022-10-18T04:42:39.884Z,6.55
2022-10-18T04:45:08.486Z,7.00
2022-10-18T04:47:35.930Z,6.57
2022-10-18T04:50:03.393Z,6.75
2022-10-18T04:52:30.822Z,6.97
2022-10-18T04:54:59.583Z,6.45
2022-10-18T04:57:27.013Z,5.97
2022-10-18T04:59:54.456Z,6.38
2022-10-18T05:02:21.916Z,7.00
2022-10-18T05:04:49.364Z,6.97
2022-10-18T05:07:17.078Z,5.95
2022-10-18T05:09:44.525Z,6.38
2022-10-18T05:12:13.306Z,6.35
2022-10-18T05:14:40.769Z,5.88
2022-10-18T05:17:08.197Z,6.03
2022-10-18T05:19:35.654Z,5.90
2022-10-18T05:22:03.093Z,5.50
2022-10-18T05:24:30.555Z,6.35
2022-10-18T05:26:58.165Z,5.90
2022-10-18T05:31:55.476Z,5.78
2022-10-18T05:34:24.619Z,6.05
2022-10-18T05:36:52.062Z,6.13
2022-10-18T05:39:19.492Z,5.70
2022-10-18T05:41:46.930Z,6.03
2022-10-18T05:44:14.367Z,6.22
2022-10-18T05:46:43.132Z,5.60
2022-10-18T05:49:10.901Z,6.03
2022-10-18T05:51:38.353Z,6.30
2022-10-18T05:54:05.934Z,7.53
2022-10-18T05:56:33.437Z,6.43
2022-10-18T05:59:00.935Z,6.50
2022-10-18T06:01:28.374Z,6.72
2022-10-18T06:03:57.172Z,7.68
2022-10-18T06:06:24.585Z,9.18
2022-10-18T06:08:52.289Z,7.10
2022-10-18T06:11:20.794Z,12.05
2022-10-18T06:13:48.907Z,18.67
2022-10-18T06:16:17.446Z,16.58
2022-10-18T06:18:47.848Z,10.20
2022-10-18T06:21:16.671Z,15.07
2022-10-18T06:23:44.148Z,12.63
2022-10-18T06:26:12.100Z,13.90
2022-10-18T06:28:39.641Z,15.50
2022-10-18T06:31:07.238Z,18.35
2022-10-18T06:33:35.396Z,14.35
2022-10-18T06:36:03.585Z,14.82
2022-10-18T06:38:32.347Z,11.63
2022-10-18T06:40:59.972Z,12.02
2022-10-18T06:43:27.436Z,12.00
2022-10-18T06:45:55.095Z,14.25
2022-10-18T06:48:22.721Z,9.10
2022-10-18T06:50:57.144Z,9.50
2022-10-18T06:53:24.901Z,10.07
2022-10-18T06:55:53.726Z,10.68
2022-10-18T06:58:21.195Z,8.20
2022-10-18T07:00:48.656Z,7.55
2022-10-18T07:03:16.127Z,8.30
2022-10-18T07:05:43.571Z,9.05
2022-10-18T07:08:11.010Z,8.98
2022-10-18T07:10:38.467Z,7.05
2022-10-18T07:13:30.988Z,9.18
2022-10-18T07:16:02.687Z,7.70
2022-10-18T07:18:30.159Z,6.57
2022-10-18T07:20:57.601Z,6.28
2022-10-18T07:23:25.191Z,7.15
2022-10-18T07:25:52.651Z,11.73
2022-10-18T07:28:21.403Z,13.88
2022-10-18T07:30:48.872Z,18.17
2022-10-18T07:33:16.310Z,16.30
2022-10-18T07:35:43.782Z,15.45
2022-10-18T07:38:11.356Z,16.05
2022-10-18T07:40:38.882Z,12.88
2022-10-18T07:43:09.216Z,13.75
2022-10-18T07:45:40.783Z,12.02
2022-10-18T07:48:08.226Z,12.10
2022-10-18T07:50:35.665Z,11.32
2022-10-18T07:53:03.095Z,13.15
2022-10-18T07:55:30.553Z,11.63
2022-10-18T07:57:57.991Z,11.63
2022-10-18T08:00:25.423Z,14.63
2022-10-18T08:02:57.939Z,11.70
2022-10-18T08:05:25.497Z,13.45
2022-10-18T08:07:52.965Z,11.32
2022-10-18T08:10:20.628Z,15.30
2022-10-18T08:12:48.049Z,12.75
2022-10-18T08:15:15.636Z,12.52
2022-10-18T08:17:44.133Z,13.88
2022-10-18T08:20:29.871Z,10.82
2022-10-18T08:23:00.345Z,13.60
2022-10-18T08:27:55.642Z,10.57
2022-10-18T08:30:23.576Z,12.77
2022-10-18T08:32:50.993Z,17.95
2022-10-18T08:35:19.783Z,10.32
2022-10-18T08:37:48.346Z,9.43
2022-10-18T08:40:15.836Z,10.65
2022-10-18T08:42:52.633Z,10.35
2022-10-18T08:45:37.405Z,8.85
2022-10-18T08:48:07.542Z,8.80
2022-10-18T08:50:38.334Z,10.65
2022-10-18T08:53:08.375Z,11.48
2022-10-18T08:58:05.782Z,9.23
2022-10-18T09:00:35.362Z,7.50
2022-10-18T09:03:11.043Z,15.07
2022-10-18T09:05:42.450Z,12.85
2022-10-18T09:08:39.878Z,10.27
2022-10-18T09:11:11.796Z,12.18
2022-10-18T09:13:58.264Z,7.72
2022-10-18T09:16:29.345Z,10.88
2022-10-18T09:18:58.521Z,8.65
2022-10-18T09:21:31.525Z,9.50
2022-10-18T09:24:02.445Z,11.45
2022-10-18T09:26:29.915Z,13.77
2022-10-18T09:29:03.838Z,8.73
2022-10-18T09:31:37.926Z,11.52
2022-10-18T09:34:06.468Z,9.77
2022-10-18T09:36:37.137Z,8.57
2022-10-18T09:39:05.280Z,12.40
2022-10-18T09:41:35.097Z,9.48
2022-10-18T09:44:03.422Z,11.82
2022-10-18T09:46:33.165Z,7.25
2022-10-18T09:49:02.465Z,8.50
2022-10-18T09:51:31.782Z,9.40
2022-10-18T09:54:04.823Z,10.02
2022-10-18T09:56:39.311Z,8.27
2022-10-18T09:59:16.555Z,7.65
2022-10-18T10:01:43.975Z,6.97
2022-10-18T10:04:11.541Z,7.15
2022-10-18T10:06:39.607Z,6.25
2022-10-18T10:09:15.210Z,7.25
2022-10-18T10:11:45.442Z,10.52
2022-10-18T10:16:51.143Z,8.32
2022-10-18T10:19:28.356Z,7.75
2022-10-18T10:21:58.281Z,6.32
2022-10-18T10:24:31.337Z,5.70
2022-10-18T10:27:06.752Z,6.70
2022-10-18T10:29:56.485Z,4.60
2022-10-18T10:34:58.912Z,6.95
2022-10-18T10:37:34.589Z,9.23
2022-10-18T10:40:20.445Z,8.05
2022-10-18T10:43:08.826Z,5.63
2022-10-18T10:46:00.895Z,6.50
2022-10-18T10:48:32.999Z,6.00
2022-10-18T10:51:02.944Z,5.43
2022-10-18T10:53:36.300Z,5.85
2022-10-18T10:56:05.668Z,9.20
2022-10-18T10:58:36.049Z,8.60
2022-10-18T11:01:22.196Z,10.32
2022-10-18T11:03:50.380Z,8.07
2022-10-18T11:06:34.911Z,8.57
2022-10-18T11:09:02.798Z,9.82
2022-10-18T11:11:32.577Z,8.82
2022-10-18T11:14:21.032Z,9.40
2022-10-18T11:16:52.597Z,7.15
2022-10-18T11:19:30.111Z,7.35
2022-10-18T11:21:57.573Z,7.13
2022-10-18T11:24:25.038Z,7.00
2022-10-18T11:26:54.814Z,7.63
2022-10-18T11:29:39.535Z,9.23
2022-10-18T11:32:11.529Z,7.25
2022-10-18T11:34:46.064Z,14.15
2022-10-18T11:37:39.183Z,17.83
2022-10-18T11:40:26.518Z,27.98
2022-10-18T11:42:58.499Z,29.98
2022-10-18T11:48:06.460Z,35.65
2022-10-18T11:50:36.011Z,34.03
2022-10-18T11:53:08.942Z,37.83
2022-10-18T11:55:42.333Z,30.55
2022-10-18T11:58:19.457Z,32.45
2022-10-18T12:00:48.953Z,33.80
2022-10-18T12:03:28.937Z,32.22
2022-10-18T12:05:57.384Z,30.55
2022-10-18T12:08:27.001Z,31.15
2022-10-18T12:11:05.587Z,30.77
2022-10-18T12:13:37.400Z,29.27
2022-10-18T12:16:05.389Z,31.50
2022-10-18T12:18:32.872Z,28.02
2022-10-18T12:21:00.584Z,25.30
2022-10-18T12:23:35.384Z,23.70
2022-10-18T12:26:03.703Z,22.45
2022-10-18T12:28:38.478Z,24.73
2022-10-18T12:31:07.824Z,21.73
2022-10-18T12:33:36.755Z,22.42
2022-10-18T12:36:09.508Z,21.45
2022-10-18T12:38:37.557Z,20.02
2022-10-18T12:41:05.094Z,18.20
2022-10-18T12:43:36.618Z,18.58
2022-10-18T12:46:10.751Z,19.58
2022-10-18T12:48:42.447Z,19.27
2022-10-18T12:51:14.853Z,17.43
2022-10-18T12:53:44.838Z,18.73
2022-10-18T12:56:36.731Z,18.08
2022-10-18T12:59:49.988Z,17.13
2022-10-18T13:02:36.736Z,16.40
2022-10-18T13:05:41.297Z,14.20
2022-10-18T13:08:39.572Z,17.90
2022-10-18T13:11:25.591Z,15.43
2022-10-18T13:14:01.073Z,14.85
2022-10-18T13:16:33.582Z,15.18
2022-10-18T13:19:10.310Z,13.57
2022-10-18T13:21:44.143Z,15.35
2022-10-18T13:24:36.318Z,17.02
2022-10-18T13:27:35.608Z,12.10
2022-10-18T13:32:45.498Z,11.38
2022-10-18T13:35:50.240Z,12.00
2022-10-18T13:38:29.954Z,11.05
2022-10-18T13:41:01.972Z,10.77
2022-10-18T13:43:58.512Z,10.77
2022-10-18T13:46:26.346Z,9.55
2022-10-18T13:48:53.977Z,10.10
2022-10-18T13:51:36.859Z,10.05
2022-10-18T13:54:10.397Z,11.40
2022-10-18T13:56:51.506Z,9.65
2022-10-18T14:02:50.523Z,10.07
2022-10-18T14:05:48.074Z,8.43
2022-10-18T14:08:18.793Z,7.93
2022-10-18T14:11:01.875Z,8.73
2022-10-18T14:13:34.688Z,9.35
2022-10-18T14:16:06.404Z,9.93
2022-10-18T14:18:35.246Z,9.68
2022-10-18T14:21:21.612Z,9.38
2022-10-18T14:23:50.844Z,7.00
2022-10-18T14:26:19.454Z,8.88
2022-10-18T14:28:59.578Z,7.88
2022-10-18T14:31:27.627Z,8.02
2022-10-18T14:33:58.114Z,7.20
2022-10-18T14:36:26.754Z,6.95
2022-10-18T14:38:56.160Z,6.72
2022-10-18T14:41:24.715Z,7.22
2022-10-18T14:43:52.458Z,6.93
2022-10-18T14:46:23.688Z,6.72
2022-10-18T14:48:55.376Z,7.10
2022-10-18T14:51:22.918Z,7.22
2022-10-18T14:53:50.376Z,7.15
2022-10-18T14:56:24.505Z,7.75
2022-10-18T14:58:52.252Z,6.65
2022-10-18T15:01:20.813Z,6.90
2022-10-18T15:03:48.295Z,6.95
2022-10-18T15:06:17.670Z,6.30
2022-10-18T15:08:46.646Z,6.95
2022-10-18T15:11:14.778Z,8.00
2022-10-18T15:13:47.833Z,6.95
2022-10-18T15:16:16.345Z,6.45
2022-10-18T15:18:43.794Z,6.38
2022-10-18T15:21:20.865Z,5.85
2022-10-18T15:23:48.326Z,5.35
2022-10-18T15:26:21.481Z,5.85
2022-10-18T15:28:52.258Z,5.20
2022-10-18T15:31:27.040Z,6.20
2022-10-18T15:33:55.143Z,5.70
2022-10-18T15:36:27.520Z,6.57
2022-10-18T15:38:54.974Z,5.18
2022-10-18T15:41:39.524Z,8.57
2022-10-18T15:44:19.605Z,5.53
2022-10-18T15:49:48.460Z,5.53
2022-10-18T15:52:38.488Z,6.55
2022-10-18T15:55:47.304Z,7.53
2022-10-18T15:58:18.253Z,5.68
2022-10-18T16:00:47.309Z,6.25
2022-10-18T16:03:14.885Z,5.88
2022-10-18T16:05:42.517Z,7.43
2022-10-18T16:08:19.334Z,7.40
2022-10-18T16:10:46.793Z,5.88
2022-10-18T16:13:14.240Z,6.53
2022-10-18T16:15:41.695Z,7.40
2022-10-18T16:18:13.852Z,6.43
2022-10-18T16:20:41.296Z,5.32
2022-10-18T16:23:15.047Z,6.82
2022-10-18T16:25:42.505Z,6.05
2022-10-18T16:28:10.910Z,4.97
2022-10-18T16:30:38.445Z,6.38
2022-10-18T16:33:07.385Z,7.57
2022-10-18T16:35:36.407Z,6.97
2022-10-18T16:38:03.884Z,11.80
2022-10-18T16:40:31.344Z,5.45
2022-10-18T16:42:58.804Z,6.93
2022-10-18T16:45:26.266Z,6.68
2022-10-18T16:47:53.716Z,6.13
2022-10-18T16:50:22.588Z,6.53
2022-10-18T16:52:51.394Z,6.78
2022-10-18T16:55:24.759Z,5.85
2022-10-18T16:57:52.281Z,6.68
2022-10-18T17:00:20.811Z,6.90
2022-10-18T17:02:48.778Z,5.60
2022-10-18T17:05:16.458Z,6.80
2022-10-18T17:07:44.031Z,5.47
2022-10-18T17:10:13.727Z,4.45
2022-10-18T17:12:41.251Z,5.70
2022-10-18T17:15:09.479Z,9.43
2022-10-18T17:17:37.082Z,10.63
2022-10-18T17:20:05.140Z,5.90
2022-10-18T17:22:32.585Z,5.40
2022-10-18T17:25:00.038Z,7.30
2022-10-18T17:27:28.792Z,10.00
2022-10-18T17:29:57.446Z,6.30
2022-10-18T17:32:24.920Z,7.75
2022-10-18T17:34:52.369Z,6.55
2022-10-18T17:37:19.805Z,5.60
2022-10-18T17:39:47.409Z,11.00
2022-10-18T17:42:14.864Z,5.70
2022-10-18T17:44:43.960Z,6.63
2022-10-18T17:47:11.422Z,6.30
2022-10-18T17:49:39.057Z,6.70
2022-10-18T17:52:07.164Z,10.23
2022-10-18T17:54:34.682Z,6.38
2022-10-18T17:57:02.121Z,7.53
2022-10-18T17:59:29.766Z,5.47
2022-10-18T18:01:58.590Z,4.35
2022-10-18T18:04:26.099Z,8.60
2022-10-18T18:06:53.941Z,6.00
2022-10-18T18:09:21.851Z,6.65
2022-10-18T18:11:50.253Z,3.67
2022-10-18T18:14:17.721Z,5.15
2022-10-18T18:16:46.377Z,5.72
2022-10-18T18:19:15.392Z,4.45
2022-10-18T18:21:43.370Z,3.95
2022-10-18T18:24:10.982Z,3.90
2022-10-18T18:26:38.999Z,4.80
2022-10-18T18:29:06.507Z,3.72
2022-10-18T18:31:38.697Z,5.10
2022-10-18T18:34:09.653Z,4.85
2022-10-18T18:36:38.481Z,7.07
2022-10-18T18:39:06.278Z,3.33
2022-10-18T18:41:33.797Z,6.60
2022-10-18T18:44:02.257Z,4.82
2022-10-18T18:46:32.842Z,3.88
2022-10-18T18:49:00.285Z,5.40
2022-10-18T18:51:27.722Z,4.70
2022-10-18T18:53:56.490Z,3.00
2022-10-18T18:56:24.943Z,5.15
2022-10-18T18:58:52.553Z,6.55
2022-10-18T19:01:20.925Z,4.32
2022-10-18T19:03:49.144Z,4.78
2022-10-18T19:06:17.830Z,4.20
2022-10-18T19:08:45.962Z,5.47
2022-10-18T19:11:15.953Z,3.42
2022-10-18T19:13:43.442Z,4.65
2022-10-18T19:16:19.907Z,2.75
2022-10-18T19:18:51.787Z,4.95
2022-10-18T19:21:19.294Z,5.88
2022-10-18T19:23:46.752Z,3.83
2022-10-18T19:26:22.683Z,6.68
2022-10-18T19:28:50.194Z,5.18
2022-10-18T19:31:17.723Z,5.75
2022-10-18T19:33:55.570Z,5.68
2022-10-18T19:36:26.388Z,3.15
2022-10-18T19:38:53.807Z,3.35
2022-10-18T19:41:23.570Z,3.65
2022-10-18T19:43:51.058Z,4.97
2022-10-18T19:46:18.509Z,5.82
2022-10-18T19:48:46.030Z,3.45
2022-10-18T19:51:17.297Z,3.25
2022-10-18T19:53:48.326Z,2.95
2022-10-18T19:56:18.390Z,4.28
2022-10-18T20:01:14.708Z,4.20
2022-10-18T20:03:42.442Z,4.40
2022-10-18T20:06:09.910Z,3.47
2022-10-18T20:08:37.526Z,5.40
2022-10-18T20:11:06.050Z,3.10
2022-10-18T20:13:33.532Z,4.15
2022-10-18T20:16:02.443Z,3.30
2022-10-18T20:18:29.878Z,4.68
2022-10-18T20:20:57.359Z,4.55
2022-10-18T20:23:24.797Z,3.63
2022-10-18T20:25:59.124Z,6.60
2022-10-18T20:28:26.692Z,3.13
2022-10-18T20:31:03.207Z,2.75
2022-10-18T20:33:30.797Z,2.50
2022-10-18T20:36:02.674Z,4.20
2022-10-18T20:38:31.795Z,5.80
2022-10-18T20:41:03.424Z,3.25
2022-10-18T20:43:30.852Z,4.70
2022-10-18T20:45:58.528Z,4.60
2022-10-18T20:48:27.366Z,2.22
2022-10-18T20:50:54.921Z,3.53
2022-10-18T20:53:23.028Z,2.83
2022-10-18T20:55:50.577Z,2.90
2022-10-18T20:58:18.006Z,5.35
2022-10-18T21:00:45.498Z,4.65
2022-10-18T21:05:46.619Z,3.55
2022-10-18T21:08:15.674Z,3.63
2022-10-18T21:10:43.118Z,4.00
2022-10-18T21:13:10.580Z,3.75
2022-10-18T21:15:38.013Z,5.82
2022-10-18T21:18:05.449Z,3.10
2022-10-18T21:20:32.930Z,4.28
2022-10-18T21:23:01.694Z,2.50
2022-10-18T21:25:29.150Z,2.97
2022-10-18T21:27:56.606Z,3.58
2022-10-18T21:30:24.051Z,4.28
2022-10-18T21:32:52.443Z,3.65
2022-10-18T21:35:19.894Z,5.25
2022-10-18T21:37:47.327Z,4.97
2022-10-18T21:40:16.202Z,2.75
2022-10-18T21:42:43.644Z,4.22
2022-10-18T21:45:11.521Z,5.40
2022-10-18T21:47:38.966Z,3.42
2022-10-18T21:50:07.026Z,2.75
2022-10-18T21:52:34.738Z,1.70
2022-10-18T21:55:02.658Z,1.92
2022-10-18T21:57:31.488Z,3.45
2022-10-18T21:59:58.997Z,2.60
2022-10-18T22:02:26.478Z,2.72
2022-10-18T22:04:54.114Z,3.42
2022-10-18T22:07:21.674Z,5.93
2022-10-18T22:09:49.100Z,4.45
2022-10-18T22:12:16.519Z,4.78
2022-10-18T22:14:45.285Z,3.78
2022-10-18T22:17:12.706Z,4.10
2022-10-18T22:22:29.296Z,1.95
2022-10-18T22:24:56.755Z,3.78
2022-10-18T22:27:24.238Z,3.30
2022-10-18T22:29:53.369Z,3.15
2022-10-18T22:32:20.846Z,2.65
2022-10-18T22:34:48.276Z,3.67
2022-10-18T22:37:15.784Z,2.72
2022-10-18T22:39:43.243Z,5.22
2022-10-18T22:42:10.790Z,3.20
2022-10-18T22:44:38.238Z,2.50
2022-10-18T22:47:07.107Z,3.25
2022-10-18T22:49:34.626Z,2.25
2022-10-18T22:52:02.120Z,5.03
2022-10-18T22:54:29.618Z,4.93
2022-10-18T22:56:57.101Z,3.42
2022-10-18T22:59:24.676Z,3.15
2022-10-18T23:01:52.217Z,3.47
2022-10-18T23:04:21.073Z,2.72
2022-10-18T23:06:48.582Z,3.42
2022-10-18T23:09:16.075Z,5.53
2022-10-18T23:11:43.643Z,5.45
2022-10-18T23:14:11.343Z,4.55
2022-10-18T23:16:38.943Z,3.83
2022-10-18T23:19:06.482Z,3.38
2022-10-18T23:21:35.350Z,4.53
2022-10-18T23:24:03.322Z,3.67
2022-10-18T23:26:30.854Z,5.57
2022-10-18T23:28:58.360Z,3.47
2022-10-18T23:31:26.689Z,3.28
2022-10-18T23:33:55.145Z,4.60
2022-10-18T23:36:22.882Z,3.85
2022-10-18T23:38:51.675Z,2.40
2022-10-18T23:41:19.305Z,4.18
2022-10-18T23:43:46.833Z,6.50
2022-10-18T23:46:14.426Z,3.15
2022-10-18T23:48:41.887Z,3.15
2022-10-18T23:51:09.462Z,5.95
2022-10-18T23:53:36.917Z,3.53
2022-10-18T23:56:06.905Z,4.10
2022-10-18T23:58:34.749Z,5.85
